Terminal Aerodrome Forecast
Issued by NWS Jacksonville, FL

Home | Current Version | Previous Version | Text Only | Print | Product List | Glossary On
Versions: 1 2 3 4 5 6 7 8 9 10 11 12 13 14 15 16 17 18 19
000
FTUS42 KJAX 301350 AAB
TAFJAX
TAF AMD
KJAX 301350Z 3014/3112 VRB03KT P6SM BKN007 BKN012
     FM301500 VRB03KT P6SM SCT012 BKN250
     FM301600 15005KT P6SM VCSH SCT040
     FM302000 VRB04KT P6SM VCTS BKN050CB
      TEMPO 3020/3024 VRB15G25KT 3SM TSRA BKN050CB
     FM310200 VRB03KT P6SM SKC=

USA.gov is the U.S. government's official web portal to all federal, state and local government web resources and services.